Glenville, WV

1:28 AM EDT on July 28, 2014 (GMT -0400)
Benedum (KCKB) Elev 1204 ft | 39.30 °N, 80.23 °W | Change Station

Current weather conditions updated 35 minutes ago

Scattered Clouds
Scattered Clouds
67 °F
Feels Like 67 °F
N
0
Wind Variable Wind from North

Today is forecast to be Much Cooler than yesterday. Cloudy with rain.

Today
High -- | Low -- °F
--% Chance of Precip.
Yesterday
High -- | Low -- °F
Precip. -- in
6:20 AM 8:38 PM
New Moon, 1% visible
Pressure 29.66 in
Visibility 10.0 miles
Clouds Few 1600 ft
Scattered Clouds 2300 ft
Scattered Clouds 3600 ft
Dew Point 65 °F
Humidity 93%
Rainfall 0.00 in
Snow Depth Not available.
UV 0 out of 12
Pollen .70 out of 12
Air Quality Not available.
Flu Activity Not available.
METAR KCKB 280453Z AUTO 00000KT 10SM FEW016 SCT023 SCT036 19/18 A2970 RMK AO2 SLP043 T01940183 402780189

More Conditions Fewer Conditions

Pressure 29.66 in
Visibility 10.0 miles
Clouds Few 1600 ft
Scattered Clouds 2300 ft
Scattered Clouds 3600 ft
Dew Point 65 °F
Humidity 93%
Rainfall 0.00 in
Snow Depth Not available.
UV 0 out of 12
Pollen .70 out of 12
Air Quality Not available.
Flu Activity Not available.
METAR KCKB 280453Z AUTO 00000KT 10SM FEW016 SCT023 SCT036 19/18 A2970 RMK AO2 SLP043 T01940183 402780189

More Conditions Fewer Conditions

10-Day Weather Forecast

Almanac

Astronomy

Jul. 28, 2014 Rise Set
Actual Time 6:20 AM EDT 8:38 PM EDT
Civil Twilight 5:50 AM EDT 9:08 PM EDT
Nautical Twilight 5:13 AM EDT 9:45 PM EDT
Astronomical Twilight 4:32 AM EDT 10:25 PM EDT
Moon 7:59 AM EDT 9:20 PM EDT
Length of Visible Light 15h 17m
Length of Day
14h 17m
Tomorrow will be 1m 48s shorter.
New Moon, 1% of the Moon is Illuminated
Today
New Moon
Aug 3
First Quarter
Aug 10
Full
Aug 17
Last Quarter
Aug 25
New

Today's Extremes

State Highs State Lows

Community

WunderPhotos

Upload Photos

1,738,309 photos uploaded!

Nearby

Snow Depth

Station Depth Elevation
No new snow has been reported.

Earthquake Activity

City Distance Mag. Time & Date
No recent earthquake activity has been reported nearby.
Minimum magnitude displayed is 2.5.

Coastal Water Temperatures

Place Temperature
No Stations Reporting

Nearby Weather Stations

Station Location Temp. Heat Index Dew Point Humidity Wind Precip. Elev Updated Type
Brooklyn Point, Glenville, WV 75.0 °F 75 °F 70 °F 86% South  at  4.7 mph - / hr 732 ft 12:26 AM CDT Normal
Quirky Towers, Vadis, Alum Bridge, WV 67.6 °F - 67 °F 99% NW  at  0.0 mph 0.00 in / hr 837 ft 1:28 AM EDT Normal
W8PY @ Harmony, West Union, WV 66.2 °F - 65 °F 97% SW  at  0.0 mph 0.00 in / hr 852 ft 1:28 AM EDT Normal
Grapevine Circle, Gassaway, WV 69.2 °F - 66 °F 89% WSW  at  0.0 mph 0.00 in / hr 1270 ft 1:19 AM EDT Normal
Frame Circle, Gassaway, WV 70.4 °F - 67 °F 88% WNW  at  2.1 mph 0.00 in / hr 890 ft 1:28 AM EDT Rapid Fire
APRSWXNET Harrisville WV US, Hazelgreen, WV 68 °F - 68 °F 100% North  at  0 mph 0.35 in / hr 806 ft 9:43 PM EDT MADIS

Show More Stations Show Fewer Stations